Time;durP1;ratioP1;P1;durP2;ratioP2;P2;SDS_P1;SDS_P2;PMS_P1;PMS_P2;Temp;Humidity;BMP_temperature;BMP_pressure;BME280_temperature;BME280_humidity;BME280_pressure;Samples;Min_cycle;Max_cycle;Signal;HPM_P1;HPM_P2
2022/07/17 00:01:06;;;;;;;6.43;3.20;;;13.90;99.90;;;;;;5012806;28;20691;-74
2022/07/17 00:03:35;;;;;;;6.10;3.50;;;13.90;99.90;;;;;;5013338;28;20201;-74
2022/07/17 00:06:04;;;;;;;7.63;3.43;;;13.80;99.90;;;;;;5012944;28;20694;-74
2022/07/17 00:08:35;;;;;;;5.37;3.20;;;13.90;99.90;;;;;;5013179;28;20245;-75
2022/07/17 00:11:03;;;;;;;7.07;3.50;;;13.80;99.90;;;;;;5008281;28;20213;-75
2022/07/17 00:13:31;;;;;;;6.10;3.30;;;13.80;99.90;;;;;;5012217;28;20319;-74
2022/07/17 00:16:01;;;;;;;5.80;3.53;;;13.70;99.90;;;;;;5013054;28;20292;-74
2022/07/17 00:18:29;;;;;;;5.47;3.30;;;13.70;99.90;;;;;;5012928;28;20232;-75
2022/07/17 00:20:57;;;;;;;8.00;3.57;;;13.60;99.90;;;;;;5012148;28;20209;-73
2022/07/17 00:23:26;;;;;;;5.17;3.50;;;13.60;99.90;;;;;;5012765;28;20300;-75
2022/07/17 00:25:54;;;;;;;4.00;3.50;;;13.60;99.90;;;;;;5012968;28;20217;-73
2022/07/17 00:28:23;;;;;;;5.23;3.20;;;13.50;99.90;;;;;;5012755;28;20631;-74
2022/07/17 00:30:51;;;;;;;5.57;3.80;;;13.50;99.90;;;;;;5012290;28;20264;-73
2022/07/17 00:33:21;;;;;;;5.30;3.50;;;13.40;99.90;;;;;;5012319;28;20643;-74
2022/07/17 00:35:49;;;;;;;5.77;3.30;;;13.40;99.90;;;;;;5012439;28;20667;-74
2022/07/17 00:38:18;;;;;;;4.77;3.60;;;13.40;99.90;;;;;;5012592;28;20206;-74
2022/07/17 00:40:46;;;;;;;7.97;3.93;;;13.30;99.90;;;;;;5012570;28;20592;-76
2022/07/17 00:43:14;;;;;;;5.53;3.43;;;13.30;99.90;;;;;;5012431;28;20241;-73
2022/07/17 00:45:43;;;;;;;4.27;3.40;;;13.30;99.90;;;;;;5012490;28;20264;-74
2022/07/17 00:48:12;;;;;;;4.47;3.50;;;13.20;99.90;;;;;;5012569;28;20845;-75
2022/07/17 00:50:43;;;;;;;7.53;3.47;;;13.20;99.90;;;;;;5012247;28;20249;-75
2022/07/17 00:53:12;;;;;;;4.57;3.40;;;13.20;99.90;;;;;;5012348;28;20229;-74
2022/07/17 00:55:41;;;;;;;6.10;3.60;;;13.10;99.90;;;;;;5012419;28;20260;-73
2022/07/17 00:58:17;;;;;;;5.40;3.63;;;13.10;99.90;;;;;;5012374;28;20209;-75
2022/07/17 01:00:46;;;;;;;5.50;3.60;;;13.00;99.90;;;;;;4998372;28;20198;-73
2022/07/17 01:03:15;;;;;;;5.63;3.50;;;13.00;99.90;;;;;;4993035;28;20206;-76
2022/07/17 01:05:45;;;;;;;5.13;3.30;;;13.00;99.90;;;;;;4993097;28;20618;-73
2022/07/17 01:08:14;;;;;;;4.23;3.40;;;13.00;99.90;;;;;;4993494;28;20210;-74
2022/07/17 01:10:43;;;;;;;5.20;3.70;;;12.90;99.90;;;;;;4993117;28;20206;-74
2022/07/17 01:13:11;;;;;;;4.60;3.33;;;12.90;99.90;;;;;;4993002;28;20281;-73
2022/07/17 01:15:43;;;;;;;4.97;3.47;;;12.90;99.90;;;;;;4993353;28;20229;-74
2022/07/17 01:18:13;;;;;;;5.13;3.70;;;12.90;99.90;;;;;;4992669;28;20220;-74
2022/07/17 01:20:45;;;;;;;6.50;4.10;;;12.80;99.90;;;;;;4993034;28;20214;-74
2022/07/17 01:23:16;;;;;;;11.50;4.00;;;12.80;99.90;;;;;;4993026;28;20187;-75
2022/07/17 01:25:44;;;;;;;5.07;3.53;;;12.80;99.90;;;;;;5004408;28;20255;-76
2022/07/17 01:28:14;;;;;;;5.33;3.30;;;12.80;99.90;;;;;;4996872;28;20609;-73
2022/07/17 01:30:48;;;;;;;5.60;3.57;;;12.70;99.90;;;;;;4996530;28;20250;-75
2022/07/17 01:33:16;;;;;;;5.33;3.30;;;12.70;99.90;;;;;;4996105;28;20249;-76
2022/07/17 01:35:45;;;;;;;5.13;3.40;;;12.70;99.90;;;;;;4996076;28;20210;-75
2022/07/17 01:38:15;;;;;;;4.33;3.33;;;12.70;99.90;;;;;;4996142;28;20629;-75
2022/07/17 01:40:44;;;;;;;6.27;3.50;;;12.80;99.90;;;;;;4996233;28;20229;-74
2022/07/17 01:43:12;;;;;;;5.37;3.57;;;12.70;99.90;;;;;;4996030;28;20306;-74
2022/07/17 01:45:42;;;;;;;4.67;3.20;;;12.80;99.90;;;;;;5003153;28;20206;-74
2022/07/17 01:48:10;;;;;;;6.07;3.23;;;12.70;99.90;;;;;;5016032;28;20297;-74
2022/07/17 01:50:38;;;;;;;6.03;3.47;;;12.70;99.90;;;;;;5015998;28;20357;-73
2022/07/17 01:53:09;;;;;;;5.50;3.43;;;12.60;99.90;;;;;;5015550;28;20268;-74
2022/07/17 01:55:38;;;;;;;4.97;3.57;;;12.60;99.90;;;;;;5015718;28;20776;-76
2022/07/17 01:58:07;;;;;;;4.27;3.50;;;12.50;99.90;;;;;;5016014;28;20292;-74
2022/07/17 02:00:37;;;;;;;5.20;3.23;;;12.50;99.90;;;;;;5015010;28;20300;-74
2022/07/17 02:03:07;;;;;;;5.57;3.60;;;12.50;99.90;;;;;;5015469;28;20210;-74
2022/07/17 02:05:35;;;;;;;5.77;3.73;;;12.40;99.90;;;;;;5015660;28;20281;-75
2022/07/17 02:08:03;;;;;;;4.37;3.40;;;12.40;99.90;;;;;;5015388;28;20210;-75
2022/07/17 02:10:31;;;;;;;4.40;3.30;;;12.40;99.90;;;;;;5015059;28;20323;-75
2022/07/17 02:13:01;;;;;;;5.23;3.27;;;12.30;99.90;;;;;;5015076;28;20280;-76
2022/07/17 02:15:30;;;;;;;4.97;3.40;;;12.30;99.90;;;;;;5015375;28;20683;-73
2022/07/17 02:17:59;;;;;;;6.80;3.57;;;12.30;99.90;;;;;;5015060;28;20580;-75
2022/07/17 02:20:30;;;;;;;4.37;3.33;;;12.20;99.90;;;;;;5014701;28;20304;-75
2022/07/17 02:22:59;;;;;;;5.40;3.50;;;12.20;99.90;;;;;;5015119;28;20193;-76
2022/07/17 02:25:30;;;;;;;6.17;3.70;;;12.20;99.90;;;;;;5014791;28;20256;-73
2022/07/17 02:28:00;;;;;;;5.97;3.73;;;12.20;99.90;;;;;;5015894;28;20216;-75
2022/07/17 02:30:29;;;;;;;5.70;3.53;;;12.10;99.90;;;;;;5015072;28;20656;-75
2022/07/17 02:32:58;;;;;;;4.33;3.33;;;12.10;99.90;;;;;;5014784;28;20686;-76
2022/07/17 02:35:26;;;;;;;6.47;3.87;;;12.10;99.90;;;;;;5014417;28;20313;-75
2022/07/17 02:37:54;;;;;;;5.80;3.37;;;12.10;99.90;;;;;;5014404;28;20728;-75
2022/07/17 02:40:25;;;;;;;6.50;3.80;;;12.10;99.90;;;;;;5014269;28;20316;-75
2022/07/17 02:42:53;;;;;;;7.93;3.83;;;12.10;99.90;;;;;;5013406;28;20668;-75
2022/07/17 02:45:24;;;;;;;7.03;3.60;;;12.10;99.90;;;;;;5013913;28;20209;-75
2022/07/17 02:47:54;;;;;;;7.43;4.30;;;12.10;99.90;;;;;;5014036;28;20217;-76
2022/07/17 02:50:25;;;;;;;5.00;3.80;;;12.00;99.90;;;;;;5014409;28;20305;-75
2022/07/17 02:52:53;;;;;;;4.97;3.73;;;12.00;99.90;;;;;;5014237;28;20315;-74
2022/07/17 02:55:22;;;;;;;6.07;4.00;;;12.00;99.90;;;;;;5013779;28;20692;-74
2022/07/17 02:57:50;;;;;;;5.20;4.00;;;11.90;99.90;;;;;;5014033;28;20692;-74
2022/07/17 03:00:20;;;;;;;4.73;4.10;;;11.80;99.90;;;;;;5009159;28;20226;-73
2022/07/17 03:02:49;;;;;;;4.33;3.67;;;11.80;99.90;;;;;;5004863;28;20240;-76
2022/07/17 03:05:18;;;;;;;5.03;4.00;;;11.70;99.90;;;;;;5014413;28;20233;-73
2022/07/17 03:07:47;;;;;;;5.20;3.80;;;11.70;99.90;;;;;;5014897;28;20664;-77
2022/07/17 03:10:15;;;;;;;6.27;3.80;;;11.60;99.90;;;;;;5015387;28;20217;-74
2022/07/17 03:12:44;;;;;;;7.90;3.90;;;11.60;99.90;;;;;;5015392;28;20269;-76
2022/07/17 03:15:12;;;;;;;7.63;3.90;;;11.60;99.90;;;;;;5014394;28;20419;-75
2022/07/17 03:17:40;;;;;;;4.60;3.50;;;11.60;99.90;;;;;;5016229;28;20244;-73
2022/07/17 03:20:10;;;;;;;8.10;4.00;;;11.50;99.90;;;;;;5014385;28;20296;-76
2022/07/17 03:22:41;;;;;;;6.63;3.93;;;11.50;99.90;;;;;;5018900;28;20210;-74
2022/07/17 03:25:10;;;;;;;5.63;4.23;;;11.50;99.90;;;;;;5014405;28;20292;-78
2022/07/17 03:27:40;;;;;;;5.07;3.97;;;11.50;99.90;;;;;;5013939;28;20308;-74
2022/07/17 03:30:09;;;;;;;4.47;3.73;;;11.50;99.90;;;;;;5013545;28;20577;-74
2022/07/17 03:32:39;;;;;;;5.13;4.13;;;11.40;99.90;;;;;;5013703;28;20248;-74
2022/07/17 03:35:08;;;;;;;5.10;3.90;;;11.50;99.90;;;;;;5013879;28;20637;-74
2022/07/17 03:37:37;;;;;;;6.93;4.20;;;11.40;99.90;;;;;;5013395;28;20683;-75
2022/07/17 03:40:09;;;;;;;4.20;3.80;;;11.40;99.90;;;;;;5012803;28;20626;-75
2022/07/17 03:42:39;;;;;;;5.07;3.60;;;11.40;99.90;;;;;;5008418;28;20210;-77
2022/07/17 03:45:11;;;;;;;5.33;3.70;;;11.40;99.90;;;;;;4993986;28;20297;-73
2022/07/17 03:47:39;;;;;;;4.33;3.80;;;11.40;99.90;;;;;;5010262;28;20659;-74
2022/07/17 03:50:08;;;;;;;6.60;4.00;;;11.30;99.90;;;;;;5012680;28;20273;-77
2022/07/17 03:52:38;;;;;;;5.87;4.00;;;11.30;99.90;;;;;;5013633;28;20220;-76
2022/07/17 03:55:10;;;;;;;6.63;3.90;;;11.30;99.90;;;;;;5012820;28;20559;-74
2022/07/17 03:57:38;;;;;;;4.70;4.10;;;11.30;99.90;;;;;;5013246;28;20306;-75
2022/07/17 04:00:09;;;;;;;7.07;4.43;;;11.40;99.90;;;;;;5012435;28;20268;-78
2022/07/17 04:02:37;;;;;;;8.00;4.30;;;11.40;99.90;;;;;;5012795;28;20272;-73
2022/07/17 04:05:09;;;;;;;5.17;4.27;;;11.40;99.90;;;;;;5012450;28;20209;-78
2022/07/17 04:07:38;;;;;;;5.17;4.40;;;11.50;99.90;;;;;;5012898;28;20204;-73
2022/07/17 04:10:09;;;;;;;5.30;3.63;;;11.50;99.90;;;;;;5010519;28;20615;-75
2022/07/17 04:12:38;;;;;;;4.90;3.93;;;11.50;99.90;;;;;;5012674;28;20652;-75
2022/07/17 04:15:08;;;;;;;6.87;3.90;;;11.60;99.90;;;;;;5012357;28;20651;-74
2022/07/17 04:17:37;;;;;;;4.60;4.10;;;11.60;99.90;;;;;;5011110;28;20665;-75
2022/07/17 04:20:06;;;;;;;5.83;3.90;;;11.60;99.90;;;;;;4999959;28;20631;-74
2022/07/17 04:22:34;;;;;;;4.60;3.87;;;11.60;99.90;;;;;;5011811;28;20197;-75
2022/07/17 04:25:03;;;;;;;5.33;4.17;;;11.70;99.90;;;;;;5012387;28;20627;-73
2022/07/17 04:27:34;;;;;;;6.77;4.00;;;11.70;99.90;;;;;;5012135;28;20256;-75
2022/07/17 04:30:02;;;;;;;4.40;4.00;;;11.80;99.90;;;;;;5012474;28;20656;-77
2022/07/17 04:32:30;;;;;;;5.37;3.93;;;11.80;99.90;;;;;;5011823;28;20240;-76
2022/07/17 04:34:58;;;;;;;5.40;3.90;;;11.90;99.90;;;;;;5012078;28;20221;-75
2022/07/17 04:37:27;;;;;;;5.00;3.97;;;11.90;99.90;;;;;;5011660;28;20244;-75
2022/07/17 04:39:55;;;;;;;5.27;3.93;;;12.00;99.90;;;;;;5011247;28;20630;-74
2022/07/17 04:42:23;;;;;;;6.53;4.07;;;12.10;99.90;;;;;;5009449;28;20237;-75
2022/07/17 04:44:53;;;;;;;6.10;4.03;;;12.10;99.90;;;;;;5011683;28;20202;-77
2022/07/17 04:47:21;;;;;;;5.23;3.80;;;12.10;99.90;;;;;;5009475;28;20577;-74
2022/07/17 04:49:52;;;;;;;5.97;3.80;;;12.20;99.90;;;;;;5011051;28;20197;-74
2022/07/17 04:52:20;;;;;;;5.43;3.90;;;12.20;99.90;;;;;;5011431;28;20545;-75
2022/07/17 04:54:48;;;;;;;7.03;4.40;;;12.30;99.90;;;;;;5011757;28;20225;-76
2022/07/17 04:57:20;;;;;;;5.67;4.30;;;12.40;99.90;;;;;;5008491;28;20233;-76
2022/07/17 04:59:48;;;;;;;7.77;4.00;;;12.50;99.90;;;;;;5012727;28;20260;-75
2022/07/17 05:02:19;;;;;;;4.63;3.90;;;12.60;99.90;;;;;;5015297;28;20735;-75
2022/07/17 05:04:47;;;;;;;5.13;3.80;;;12.60;99.90;;;;;;5008561;28;20201;-75
2022/07/17 05:07:15;;;;;;;5.47;4.00;;;12.70;99.90;;;;;;5015515;28;20296;-74
2022/07/17 05:09:43;;;;;;;4.27;3.57;;;12.80;99.90;;;;;;5015626;28;20288;-74
2022/07/17 05:12:11;;;;;;;7.20;4.10;;;13.00;99.90;;;;;;5015205;28;20201;-76
2022/07/17 05:14:40;;;;;;;5.77;3.90;;;13.10;99.90;;;;;;5010590;28;20222;-76
2022/07/17 05:17:09;;;;;;;8.83;4.10;;;13.20;99.90;;;;;;5011731;28;20296;-75
2022/07/17 05:19:40;;;;;;;7.57;3.90;;;13.30;99.90;;;;;;5015915;28;20564;-75
2022/07/17 05:22:08;;;;;;;5.43;3.97;;;13.40;99.90;;;;;;5015826;28;20236;-75
2022/07/17 05:24:37;;;;;;;4.17;3.67;;;13.50;99.90;;;;;;5015741;28;20617;-74
2022/07/17 05:27:07;;;;;;;5.80;3.90;;;13.60;99.90;;;;;;5015322;28;20198;-74
2022/07/17 05:29:35;;;;;;;6.33;3.60;;;13.70;99.90;;;;;;5015407;28;20205;-74
2022/07/17 05:32:04;;;;;;;4.67;3.60;;;13.80;99.90;;;;;;5015275;28;20210;-73
2022/07/17 05:34:33;;;;;;;4.27;3.40;;;13.90;99.90;;;;;;5015192;28;20292;-75
2022/07/17 05:37:02;;;;;;;5.00;3.60;;;14.30;99.90;;;;;;5011406;28;20297;-75
2022/07/17 05:39:33;;;;;;;6.37;3.20;;;14.60;99.90;;;;;;5013734;28;20221;-76
2022/07/17 05:42:04;;;;;;;4.80;3.13;;;14.90;99.90;;;;;;5014602;28;20245;-74
2022/07/17 05:44:32;;;;;;;4.40;3.40;;;15.10;99.90;;;;;;5014975;28;20256;-76
2022/07/17 05:47:00;;;;;;;4.87;3.40;;;15.40;99.90;;;;;;5001861;28;20274;-76
2022/07/17 05:49:28;;;;;;;3.97;2.80;;;15.40;99.90;;;;;;4995937;28;20233;-75
2022/07/17 05:52:00;;;;;;;5.83;3.10;;;15.60;99.90;;;;;;5005539;28;20344;-75
2022/07/17 05:54:29;;;;;;;6.33;3.53;;;15.80;99.90;;;;;;5010296;28;20202;-74
2022/07/17 05:56:57;;;;;;;4.30;2.90;;;16.10;99.90;;;;;;5033931;28;20233;-75
2022/07/17 05:59:25;;;;;;;9.50;2.90;;;16.70;99.90;;;;;;5036541;28;20705;-75
2022/07/17 06:01:53;;;;;;;3.57;2.50;;;17.60;99.90;;;;;;5036069;28;20637;-76
2022/07/17 06:04:23;;;;;;;8.40;2.50;;;19.10;99.90;;;;;;5024697;28;20320;-76
2022/07/17 06:06:52;;;;;;;4.17;2.70;;;20.40;99.90;;;;;;5014100;28;20209;-77
2022/07/17 06:09:20;;;;;;;3.90;2.40;;;21.60;99.90;;;;;;5013839;28;20284;-77
2022/07/17 06:11:50;;;;;;;4.23;2.23;;;22.50;99.60;;;;;;5013637;28;20608;-76
2022/07/17 06:14:18;;;;;;;3.60;2.10;;;23.20;97.90;;;;;;5014256;28;20257;-79
2022/07/17 06:16:49;;;;;;;5.27;2.40;;;23.50;95.30;;;;;;5014021;28;20257;-76
2022/07/17 06:19:21;;;;;;;3.70;2.23;;;24.30;93.10;;;;;;5013967;28;20251;-79
2022/07/17 06:21:49;;;;;;;4.73;2.23;;;24.70;91.50;;;;;;5013886;28;20620;-77
2022/07/17 06:24:17;;;;;;;3.73;2.27;;;24.60;92.20;;;;;;5014055;28;20237;-77
2022/07/17 06:26:45;;;;;;;5.33;2.60;;;25.40;91.20;;;;;;5013945;28;20233;-78
2022/07/17 06:29:15;;;;;;;3.83;2.30;;;25.80;89.20;;;;;;5013782;28;20217;-78
2022/07/17 06:31:43;;;;;;;3.85;2.10;;;25.70;88.30;;;;;;5015449;28;20216;-79
2022/07/17 06:34:11;;;;;;;2.75;2.50;;;25.90;88.00;;;;;;5013289;28;20675;-79
2022/07/17 06:36:39;;;;;;;3.63;2.50;;;25.70;87.50;;;;;;5013103;28;20233;-78
2022/07/17 06:39:09;;;;;;;4.10;2.60;;;25.90;86.10;;;;;;5002296;28;20218;-79
2022/07/17 06:41:38;;;;;;;4.05;2.45;;;26.60;85.30;;;;;;5002345;28;20256;-80
2022/07/17 06:44:06;;;;;;;5.13;2.20;;;27.00;84.20;;;;;;5013620;28;20250;-81
2022/07/17 06:46:36;;;;;;;5.13;2.13;;;27.60;82.50;;;;;;5013685;28;20308;-78
2022/07/17 06:49:04;;;;;;;6.55;2.22;;;27.90;81.80;;;;;;5013651;28;20300;-79
2022/07/17 06:51:32;;;;;;;3.72;2.15;;;28.40;78.10;;;;;;5013531;28;20336;-79
2022/07/17 06:54:02;;;;;;;3.70;2.30;;;28.70;78.20;;;;;;5013761;28;20292;-80
2022/07/17 06:56:30;;;;;;;3.38;2.20;;;28.70;75.00;;;;;;5013096;28;20708;-80
2022/07/17 06:58:58;;;;;;;3.42;2.03;;;28.80;74.40;;;;;;5013317;28;20285;-80
2022/07/17 07:01:26;;;;;;;3.13;2.30;;;29.10;74.50;;;;;;5013366;28;20309;-79
2022/07/17 07:03:56;;;;;;;4.18;2.10;;;30.30;72.50;;;;;;5013332;28;20217;-80
2022/07/17 07:06:24;;;;;;;2.55;1.75;;;30.40;72.10;;;;;;5013268;28;20289;-80
2022/07/17 07:08:53;;;;;;;5.90;2.38;;;30.40;71.20;;;;;;5012947;28;20252;-82
2022/07/17 07:11:20;;;;;;;3.50;2.00;;;30.20;67.20;;;;;;5013099;28;20301;-81
2022/07/17 07:13:49;;;;;;;2.75;2.00;;;31.20;67.70;;;;;;5013270;28;20669;-80
2022/07/17 07:16:17;;;;;;;3.30;2.00;;;32.40;65.30;;;;;;5022963;28;20713;-82
2022/07/17 07:18:45;;;;;;;3.08;2.17;;;33.00;63.30;;;;;;5032735;28;20221;-81
2022/07/17 07:21:15;;;;;;;3.03;1.80;;;33.00;59.30;;;;;;5032698;28;20228;-79
2022/07/17 07:23:43;;;;;;;2.40;2.10;;;33.10;59.60;;;;;;5014368;28;20659;-80
2022/07/17 07:26:11;;;;;;;5.03;1.90;;;33.30;56.10;;;;;;5013517;28;20229;-82
2022/07/17 07:28:40;;;;;;;3.10;2.15;;;33.00;56.30;;;;;;5013540;28;20206;-80
2022/07/17 07:31:10;;;;;;;3.80;1.90;;;33.00;58.00;;;;;;5013686;28;20289;-82
2022/07/17 07:33:43;;;;;;;3.33;2.10;;;33.40;57.00;;;;;;5013799;28;20206;-82
2022/07/17 07:36:12;;;;;;;3.50;1.90;;;33.40;55.30;;;;;;5014073;28;20260;-82
2022/07/17 07:38:42;;;;;;;2.58;1.90;;;32.40;55.10;;;;;;4995141;28;20310;-82
2022/07/17 07:41:13;;;;;;;2.13;1.92;;;33.00;56.40;;;;;;4994362;28;20246;-81
2022/07/17 07:43:53;;;;;;;2.63;1.90;;;34.00;54.80;;;;;;5111543;27;20576;-82
2022/07/17 07:46:21;;;;;;;3.40;2.00;;;33.70;55.10;;;;;;5110620;28;20297;-82
2022/07/17 07:48:50;;;;;;;3.28;1.92;;;33.90;55.50;;;;;;5110503;28;20214;-82
2022/07/17 07:51:19;;;;;;;5.70;2.00;;;34.00;54.20;;;;;;5110219;28;20295;-83
2022/07/17 07:54:07;;;;;;;4.80;2.00;;;34.20;53.50;;;;;;5109043;28;20194;-83
2022/07/17 07:56:36;;;;;;;5.07;1.90;;;33.40;54.00;;;;;;5109761;28;20245;-84
2022/07/17 07:59:06;;;;;;;3.92;2.00;;;33.50;55.00;;;;;;5110176;28;20244;-82
2022/07/17 08:01:34;;;;;;;4.28;2.05;;;33.60;53.30;;;;;;5109856;28;20278;-81
2022/07/17 08:04:03;;;;;;;3.13;1.88;;;34.30;52.80;;;;;;5111678;28;20211;-81
2022/07/17 08:06:32;;;;;;;4.18;2.28;;;33.90;54.30;;;;;;5116141;28;20214;-82
2022/07/17 08:09:00;;;;;;;3.80;1.80;;;34.20;53.70;;;;;;5115861;28;20211;-81
2022/07/17 08:11:28;;;;;;;2.10;1.90;;;33.50;54.30;;;;;;5118780;28;20217;-80
2022/07/17 08:13:57;;;;;;;4.93;2.00;;;34.20;52.00;;;;;;5117878;28;20202;-80
2022/07/17 08:16:36;;;;;;;4.90;1.90;;;33.50;52.90;;;;;;5119063;28;20198;-81
2022/07/17 08:19:04;;;;;;;3.00;1.70;;;33.60;50.80;;;;;;5116996;28;20194;-82
2022/07/17 08:21:32;;;;;;;4.43;1.90;;;33.90;51.00;;;;;;5109156;28;20210;-83
2022/07/17 08:24:03;;;;;;;3.08;1.88;;;33.40;53.20;;;;;;5108896;28;20268;-80
2022/07/17 08:26:31;;;;;;;3.05;2.10;;;33.60;54.30;;;;;;5109368;28;20204;-84
2022/07/17 08:28:59;;;;;;;2.28;2.00;;;33.80;53.50;;;;;;5108956;28;20209;-81
2022/07/17 08:31:30;;;;;;;2.63;1.73;;;33.80;54.20;;;;;;5108713;28;20230;-84
2022/07/17 08:33:59;;;;;;;4.97;2.20;;;33.90;53.30;;;;;;5108790;28;20191;-83
2022/07/17 08:36:30;;;;;;;3.38;1.77;;;34.20;52.70;;;;;;5108586;28;20233;-82
2022/07/17 08:38:58;;;;;;;4.47;2.03;;;35.10;51.50;;;;;;5108704;28;20297;-84
2022/07/17 08:41:28;;;;;;;4.63;1.80;;;34.70;51.90;;;;;;5108193;28;20297;-82
2022/07/17 08:43:57;;;;;;;5.43;2.00;;;34.60;51.00;;;;;;5108085;28;20551;-81
2022/07/17 08:46:28;;;;;;;4.72;1.90;;;34.40;50.40;;;;;;5108656;28;20263;-83
2022/07/17 08:49:00;;;;;;;2.50;1.80;;;34.20;49.80;;;;;;5108421;28;20735;-81
2022/07/17 08:51:29;;;;;;;2.60;1.70;;;33.80;50.70;;;;;;5108671;28;20238;-81
2022/07/17 08:53:58;;;;;;;4.93;2.00;;;34.70;50.20;;;;;;5102369;28;20207;-83
2022/07/17 08:56:28;;;;;;;4.85;2.03;;;34.80;48.20;;;;;;5095674;28;20213;-80
2022/07/17 08:58:57;;;;;;;5.50;2.00;;;34.80;48.90;;;;;;5095129;28;20302;-82
2022/07/17 09:01:26;;;;;;;3.25;1.88;;;35.60;46.60;;;;;;5095090;28;20207;-81
2022/07/17 09:03:57;;;;;;;3.50;1.80;;;35.10;46.90;;;;;;5095244;28;20649;-84
2022/07/17 09:06:27;;;;;;;3.90;2.05;;;35.40;46.60;;;;;;5097187;28;20217;-82
2022/07/17 09:09:06;;;;;;;2.70;1.80;;;35.00;47.20;;;;;;5095693;28;20564;-82
2022/07/17 09:11:47;;;;;;;3.42;1.70;;;35.80;47.50;;;;;;5095461;28;20202;-83
2022/07/17 09:14:15;;;;;;;6.38;1.80;;;34.80;47.10;;;;;;5095228;28;20230;-82
2022/07/17 09:16:55;;;;;;;3.03;1.80;;;34.50;48.40;;;;;;5096094;28;20248;-81
2022/07/17 09:19:31;;;;;;;5.07;1.60;;;33.60;49.50;;;;;;5094966;28;20191;-81
2022/07/17 09:22:10;;;;;;;6.13;1.70;;;34.50;47.50;;;;;;5094496;28;20228;-82
2022/07/17 09:24:44;;;;;;;3.33;1.60;;;34.90;50.60;;;;;;5094432;28;20274;-80
2022/07/17 09:27:28;;;;;;;2.15;1.70;;;34.20;49.40;;;;;;5094251;28;20195;-84
2022/07/17 09:30:09;;;;;;;3.05;1.80;;;34.70;46.60;;;;;;5094032;28;20230;-83
2022/07/17 09:32:40;;;;;;;5.03;2.00;;;35.20;48.30;;;;;;5095717;28;20632;-82
2022/07/17 09:35:10;;;;;;;3.33;1.92;;;34.20;47.30;;;;;;5095569;28;20750;-83
2022/07/17 09:37:40;;;;;;;3.22;1.60;;;34.50;47.30;;;;;;5096970;28;20272;-82
2022/07/17 09:41:09;;;;;;;3.63;1.70;;;34.60;47.80;;;;;;5096043;28;20207;-81
2022/07/17 09:43:03;;;;;;;3.35;2.05;;;35.20;47.20;;;;;;5094646;28;20651;-82
2022/07/17 09:45:34;;;;;;;2.67;1.90;;;34.70;47.90;;;;;;5095560;28;20664;-81
2022/07/17 09:48:03;;;;;;;4.07;1.90;;;34.80;47.20;;;;;;5096559;28;20282;-82
2022/07/17 09:50:34;;;;;;;3.92;1.85;;;33.80;45.70;;;;;;5094625;28;20281;-79
2022/07/17 09:53:06;;;;;;;2.55;1.77;;;33.80;46.80;;;;;;5094501;28;20665;-81
2022/07/17 09:55:34;;;;;;;3.92;1.92;;;33.20;49.50;;;;;;5095278;28;20232;-82
2022/07/17 09:58:18;;;;;;;5.65;2.28;;;33.70;48.20;;;;;;5094854;28;20229;-82
2022/07/17 10:00:46;;;;;;;3.22;1.83;;;34.70;47.10;;;;;;5094347;28;20607;-83
2022/07/17 10:03:19;;;;;;;2.17;1.77;;;34.70;46.50;;;;;;5095230;28;20265;-81
2022/07/17 10:05:48;;;;;;;3.88;1.90;;;34.40;48.00;;;;;;5094016;28;20560;-81
2022/07/17 10:08:19;;;;;;;3.28;1.80;;;34.40;47.10;;;;;;5094912;28;20215;-79
2022/07/17 10:10:47;;;;;;;3.30;1.75;;;34.10;49.40;;;;;;5104875;28;20195;-79
2022/07/17 10:13:16;;;;;;;2.25;1.73;;;33.60;47.90;;;;;;5106963;28;20237;-80
2022/07/17 10:15:45;;;;;;;5.65;2.10;;;33.40;47.40;;;;;;5110076;28;20232;-80
2022/07/17 10:18:13;;;;;;;2.95;1.95;;;33.70;49.00;;;;;;5110475;28;20206;-80
2022/07/17 10:20:41;;;;;;;3.30;1.80;;;34.20;49.10;;;;;;5110788;28;20203;-80
2022/07/17 10:23:14;;;;;;;2.85;1.65;;;35.10;46.90;;;;;;5109572;28;20222;-82
2022/07/17 10:25:44;;;;;;;4.90;1.80;;;35.20;47.00;;;;;;5110893;28;20217;-81
2022/07/17 10:28:12;;;;;;;3.72;1.88;;;34.00;46.90;;;;;;5111907;28;20238;-80
2022/07/17 10:30:46;;;;;;;2.53;1.55;;;33.90;44.80;;;;;;5107962;28;20210;-80
2022/07/17 10:33:17;;;;;;;1.60;1.50;;;33.90;43.30;;;;;;5103723;28;20195;-79
2022/07/17 10:35:48;;;;;;;2.13;1.60;;;33.90;45.80;;;;;;5088774;28;20235;-80
2022/07/17 10:38:17;;;;;;;2.33;1.67;;;34.10;45.00;;;;;;5084319;28;20229;-80
2022/07/17 10:40:46;;;;;;;3.38;1.90;;;33.60;48.50;;;;;;5081158;28;20318;-81
2022/07/17 10:43:15;;;;;;;4.15;1.75;;;33.90;48.20;;;;;;5082908;28;20242;-82
2022/07/17 10:45:46;;;;;;;3.85;1.70;;;33.70;50.00;;;;;;5089041;28;20274;-81
2022/07/17 10:48:17;;;;;;;3.10;1.85;;;33.40;49.20;;;;;;5088632;28;20215;-81
2022/07/17 10:50:48;;;;;;;3.47;1.80;;;33.50;47.70;;;;;;5090537;28;20192;-81
2022/07/17 10:53:20;;;;;;;5.93;1.80;;;33.60;46.60;;;;;;5090871;28;20215;-81
2022/07/17 10:55:55;;;;;;;3.20;1.70;;;33.70;45.30;;;;;;5089476;28;20209;-82
2022/07/17 10:58:26;;;;;;;1.95;1.65;;;33.10;47.00;;;;;;5089337;28;20227;-80
2022/07/17 11:00:59;;;;;;;3.35;1.63;;;33.10;47.90;;;;;;5092788;28;20191;-82
2022/07/17 11:03:30;;;;;;;3.40;1.60;;;33.30;47.80;;;;;;5090062;28;20224;-82
2022/07/17 11:06:15;;;;;;;2.75;1.90;;;33.00;48.90;;;;;;5083711;28;20199;-80
2022/07/17 11:08:46;;;;;;;6.72;2.00;;;33.00;49.20;;;;;;5075666;28;20275;-81
2022/07/17 11:11:17;;;;;;;2.72;1.70;;;32.90;50.20;;;;;;5078774;28;20196;-81
2022/07/17 11:13:52;;;;;;;2.35;1.70;;;32.30;47.80;;;;;;5079745;28;20199;-78
2022/07/17 11:16:28;;;;;;;3.90;1.80;;;32.10;48.20;;;;;;5079207;28;20294;-80
2022/07/17 11:18:58;;;;;;;2.20;1.60;;;32.60;48.70;;;;;;5078328;28;20256;-80
2022/07/17 11:21:28;;;;;;;6.45;1.95;;;33.30;49.30;;;;;;5079508;28;20279;-80
2022/07/17 11:23:59;;;;;;;3.38;1.95;;;33.40;47.60;;;;;;5079206;28;20306;-81
2022/07/17 11:26:29;;;;;;;3.50;1.70;;;33.20;45.50;;;;;;5078788;28;20234;-81
2022/07/17 11:28:58;;;;;;;4.72;1.88;;;33.20;46.60;;;;;;5078848;28;20203;-81
2022/07/17 11:31:30;;;;;;;3.08;1.83;;;32.30;49.10;;;;;;5086064;28;20207;-79
2022/07/17 11:34:00;;;;;;;2.28;1.73;;;32.70;51.30;;;;;;5097866;28;20199;-82
2022/07/17 11:36:32;;;;;;;3.33;1.80;;;32.40;46.00;;;;;;5094474;28;20272;-82
2022/07/17 11:39:03;;;;;;;3.20;1.60;;;31.80;49.60;;;;;;5094808;28;20696;-81
2022/07/17 11:41:37;;;;;;;4.43;1.70;;;31.70;47.30;;;;;;5096407;28;20199;-83
2022/07/17 11:44:09;;;;;;;3.00;1.83;;;31.70;51.20;;;;;;5095897;28;20287;-79
2022/07/17 11:46:43;;;;;;;2.55;1.50;;;31.00;50.60;;;;;;5095692;28;20194;-80
2022/07/17 11:49:11;;;;;;;4.65;1.70;;;31.10;51.40;;;;;;5136549;28;20262;-80
2022/07/17 11:51:42;;;;;;;3.88;1.90;;;31.20;49.20;;;;;;5134962;28;20244;-79
2022/07/17 11:54:11;;;;;;;2.22;1.63;;;30.80;50.40;;;;;;5133872;28;20198;-80
2022/07/17 11:56:43;;;;;;;3.65;1.70;;;30.80;50.30;;;;;;5134560;28;20205;-82
2022/07/17 11:59:12;;;;;;;3.40;1.83;;;30.80;51.00;;;;;;5133959;28;20295;-79
2022/07/17 12:01:42;;;;;;;4.25;1.80;;;30.00;50.90;;;;;;5133898;28;20216;-79
2022/07/17 12:04:12;;;;;;;3.23;1.50;;;29.90;53.30;;;;;;5134910;28;20209;-80
2022/07/17 12:06:45;;;;;;;3.57;1.63;;;29.90;49.20;;;;;;5133340;28;20279;-77
2022/07/17 12:09:14;;;;;;;1.90;1.60;;;29.90;51.70;;;;;;5133087;28;20667;-77
2022/07/17 12:11:51;;;;;;;2.47;1.87;;;29.70;52.30;;;;;;5133635;28;20202;-79
2022/07/17 12:14:19;;;;;;;3.47;1.80;;;29.60;53.30;;;;;;5133451;28;20262;-78
2022/07/17 12:16:48;;;;;;;3.73;1.80;;;29.40;50.50;;;;;;5133211;28;20762;-77
2022/07/17 12:19:18;;;;;;;1.83;1.57;;;29.10;51.90;;;;;;5133412;28;20206;-78
2022/07/17 12:21:56;;;;;;;1.70;1.50;;;29.30;53.10;;;;;;5133547;28;20193;-77
2022/07/17 12:24:27;;;;;;;3.00;1.60;;;29.20;53.20;;;;;;5133470;28;20704;-78
2022/07/17 12:27:03;;;;;;;2.33;1.90;;;29.40;52.60;;;;;;5133452;28;20217;-77
2022/07/17 12:29:33;;;;;;;2.53;1.60;;;29.40;52.10;;;;;;5134689;27;20296;-77
2022/07/17 12:32:05;;;;;;;3.07;1.60;;;29.50;52.70;;;;;;5137728;27;20634;-77
2022/07/17 12:34:34;;;;;;;2.97;1.50;;;29.80;53.40;;;;;;5138480;27;20217;-79
2022/07/17 12:37:04;;;;;;;3.60;1.70;;;29.90;52.70;;;;;;5138517;27;20209;-78
2022/07/17 12:39:33;;;;;;;3.07;1.63;;;29.70;49.90;;;;;;5137525;27;20205;-79
2022/07/17 12:42:03;;;;;;;2.70;1.40;;;29.60;50.90;;;;;;5136977;27;20288;-78
2022/07/17 12:44:31;;;;;;;2.03;1.50;;;29.50;48.40;;;;;;5136940;27;20219;-79
2022/07/17 12:47:01;;;;;;;2.10;1.70;;;29.70;50.60;;;;;;5137592;27;20213;-78
2022/07/17 12:49:30;;;;;;;1.73;1.40;;;29.80;49.50;;;;;;5136706;27;20209;-78
2022/07/17 12:51:59;;;;;;;3.67;1.80;;;29.80;50.40;;;;;;5136988;27;20235;-77
2022/07/17 12:54:27;;;;;;;2.70;1.93;;;29.90;51.50;;;;;;5136400;27;20221;-78
2022/07/17 12:56:55;;;;;;;3.47;1.80;;;29.80;50.90;;;;;;5137613;27;20209;-78
2022/07/17 12:59:25;;;;;;;2.77;1.50;;;29.40;51.90;;;;;;5138072;27;20675;-78
2022/07/17 13:01:54;;;;;;;1.90;1.57;;;29.20;50.00;;;;;;5139202;27;20248;-78